West Salem, Ohio
Current Conditions -  °F | °C
As of 7:27 PM on Sunday 25 Jan 2015 (Local Time) from KBJJ Reporting Station
Light Snow Light Snow  
Wind Chill: -12°   Ceiling: 1400
Heat Index: -5°   Visibility: 1.2mi
Dew Point: -7°   Wind: 15mph
Humidity: 88%   Direction: 40°NE
Pressure: 29.82"   Gusts: NA
Location:  40.97°N, 82.11°W
Report Text: KBJJ 260027Z AUTO 04013KT 1 1/4SM -SN BR OVC014 M05/M07 A2982 RMK AO2 P0000 T10501067 TSNO
Loading
Personal Weather Stations






























Interactive Weather Map New forecast layout! Learn more

10-Day Weather Forecast

Advertisements
Track Severe Weather on mobile